sensor_id;sensor_type;location;lat;lon;timestamp;pressure;altitude;pressure_sealevel;temperature;humidity
30724;BME280;17473;52.286;20.930;2023-04-03T00:01:09;100880.22;;;2.25;60.05
30724;BME280;17473;52.286;20.930;2023-04-03T00:03:36;100882.81;;;2.13;60.67
30724;BME280;17473;52.286;20.930;2023-04-03T00:06:04;100885.25;;;2.22;60.01
30724;BME280;17473;52.286;20.930;2023-04-03T00:08:33;100896.34;;;2.19;60.22
30724;BME280;17473;52.286;20.930;2023-04-03T00:11:01;100897.47;;;2.23;60.37
30724;BME280;17473;52.286;20.930;2023-04-03T00:13:29;100886.13;;;2.11;60.42
30724;BME280;17473;52.286;20.930;2023-04-03T00:15:56;100897.25;;;2.20;60.33
30724;BME280;17473;52.286;20.930;2023-04-03T00:18:23;100885.88;;;2.08;60.75
30724;BME280;17473;52.286;20.930;2023-04-03T00:20:51;100893.03;;;2.10;60.84
30724;BME280;17473;52.286;20.930;2023-04-03T00:23:18;100895.59;;;1.98;61.38
30724;BME280;17473;52.286;20.930;2023-04-03T00:25:45;100895.72;;;2.00;60.95
30724;BME280;17473;52.286;20.930;2023-04-03T00:28:12;100904.31;;;1.87;61.32
30724;BME280;17473;52.286;20.930;2023-04-03T00:30:39;100894.31;;;1.81;61.77
30724;BME280;17473;52.286;20.930;2023-04-03T00:33:07;100890.50;;;1.88;61.33
30724;BME280;17473;52.286;20.930;2023-04-03T00:35:34;100901.03;;;1.90;61.00
30724;BME280;17473;52.286;20.930;2023-04-03T00:38:02;100901.38;;;1.94;60.30
30724;BME280;17473;52.286;20.930;2023-04-03T00:40:36;100898.16;;;1.86;60.48
30724;BME280;17473;52.286;20.930;2023-04-03T00:43:23;100898.03;;;1.73;60.36
30724;BME280;17473;52.286;20.930;2023-04-03T00:45:53;100900.09;;;1.55;61.00
30724;BME280;17473;52.286;20.930;2023-04-03T00:48:26;100887.75;;;1.52;60.79
30724;BME280;17473;52.286;20.930;2023-04-03T00:50:55;100907.13;;;1.56;61.02
30724;BME280;17473;52.286;20.930;2023-04-03T00:53:30;100904.63;;;1.58;61.02
30724;BME280;17473;52.286;20.930;2023-04-03T00:55:58;100894.00;;;1.54;60.74
30724;BME280;17473;52.286;20.930;2023-04-03T00:58:54;100906.22;;;1.55;60.47
30724;BME280;17473;52.286;20.930;2023-04-03T01:01:27;100903.63;;;1.33;61.08
30724;BME280;17473;52.286;20.930;2023-04-03T01:03:55;100909.00;;;1.47;60.75
30724;BME280;17473;52.286;20.930;2023-04-03T01:06:29;100909.41;;;1.19;61.02
30724;BME280;17473;52.286;20.930;2023-04-03T01:08:59;100909.56;;;1.43;60.63
30724;BME280;17473;52.286;20.930;2023-04-03T01:11:27;100912.22;;;1.32;60.74
30724;BME280;17473;52.286;20.930;2023-04-03T01:13:54;100921.84;;;1.11;61.00
30724;BME280;17473;52.286;20.930;2023-04-03T01:16:21;100924.34;;;1.21;61.19
30724;BME280;17473;52.286;20.930;2023-04-03T01:18:49;100935.66;;;1.32;60.92
30724;BME280;17473;52.286;20.930;2023-04-03T01:21:48;100927.41;;;1.16;61.22
30724;BME280;17473;52.286;20.930;2023-04-03T01:24:34;100939.34;;;1.24;61.04
30724;BME280;17473;52.286;20.930;2023-04-03T01:27:05;100939.13;;;1.11;61.67
30724;BME280;17473;52.286;20.930;2023-04-03T01:29:33;100936.28;;;1.07;61.39
30724;BME280;17473;52.286;20.930;2023-04-03T01:32:02;100945.66;;;1.05;61.65
30724;BME280;17473;52.286;20.930;2023-04-03T01:34:31;100947.19;;;1.14;61.48
30724;BME280;17473;52.286;20.930;2023-04-03T01:36:58;100955.84;;;1.24;61.38
30724;BME280;17473;52.286;20.930;2023-04-03T01:39:25;100952.81;;;0.98;61.75
30724;BME280;17473;52.286;20.930;2023-04-03T01:41:53;100957.72;;;1.05;61.57
30724;BME280;17473;52.286;20.930;2023-04-03T01:44:20;100958.44;;;0.92;62.07
30724;BME280;17473;52.286;20.930;2023-04-03T01:46:47;100956.34;;;0.98;61.80
30724;BME280;17473;52.286;20.930;2023-04-03T01:49:14;100959.75;;;0.87;61.65
30724;BME280;17473;52.286;20.930;2023-04-03T01:51:41;100951.69;;;0.84;61.96
30724;BME280;17473;52.286;20.930;2023-04-03T01:54:08;100952.38;;;0.81;61.80
30724;BME280;17473;52.286;20.930;2023-04-03T01:56:35;100954.41;;;0.85;61.64
30724;BME280;17473;52.286;20.930;2023-04-03T01:59:02;100972.19;;;1.01;61.66
30724;BME280;17473;52.286;20.930;2023-04-03T02:01:29;100958.72;;;0.85;61.97
30724;BME280;17473;52.286;20.930;2023-04-03T02:03:57;100965.94;;;0.99;61.38
30724;BME280;17473;52.286;20.930;2023-04-03T02:06:24;100972.75;;;0.87;62.15
30724;BME280;17473;52.286;20.930;2023-04-03T02:08:52;100980.03;;;0.91;61.47
30724;BME280;17473;52.286;20.930;2023-04-03T02:11:19;100979.44;;;0.73;62.34
30724;BME280;17473;52.286;20.930;2023-04-03T02:13:46;100982.38;;;0.98;61.74
30724;BME280;17473;52.286;20.930;2023-04-03T02:16:13;100979.44;;;0.73;62.32
30724;BME280;17473;52.286;20.930;2023-04-03T02:18:41;100979.91;;;0.89;62.26
30724;BME280;17473;52.286;20.930;2023-04-03T02:21:08;100982.53;;;0.79;62.07
30724;BME280;17473;52.286;20.930;2023-04-03T02:23:35;100977.75;;;0.63;62.34
30724;BME280;17473;52.286;20.930;2023-04-03T02:26:13;100979.44;;;0.52;63.19
30724;BME280;17473;52.286;20.930;2023-04-03T02:28:40;100989.56;;;0.59;62.54
30724;BME280;17473;52.286;20.930;2023-04-03T02:31:10;100986.75;;;0.56;62.72
30724;BME280;17473;52.286;20.930;2023-04-03T02:33:38;100988.19;;;0.53;63.04
30724;BME280;17473;52.286;20.930;2023-04-03T02:36:07;100986.47;;;0.43;63.19
30724;BME280;17473;52.286;20.930;2023-04-03T02:38:34;100990.63;;;0.41;62.97
30724;BME280;17473;52.286;20.930;2023-04-03T02:41:08;100987.75;;;0.69;62.49
30724;BME280;17473;52.286;20.930;2023-04-03T02:43:36;101000.00;;;0.39;62.81
30724;BME280;17473;52.286;20.930;2023-04-03T02:46:04;100995.03;;;0.52;62.65
30724;BME280;17473;52.286;20.930;2023-04-03T02:48:32;101006.75;;;0.47;63.43
30724;BME280;17473;52.286;20.930;2023-04-03T02:50:59;101002.44;;;0.58;63.21
30724;BME280;17473;52.286;20.930;2023-04-03T02:53:26;101012.06;;;0.49;63.42
30724;BME280;17473;52.286;20.930;2023-04-03T02:55:53;101002.44;;;0.58;62.83
30724;BME280;17473;52.286;20.930;2023-04-03T02:58:20;101005.44;;;0.42;63.61
30724;BME280;17473;52.286;20.930;2023-04-03T03:00:47;101004.81;;;0.34;63.86
30724;BME280;17473;52.286;20.930;2023-04-03T03:03:14;101011.19;;;0.38;63.92
30724;BME280;17473;52.286;20.930;2023-04-03T03:05:41;101007.81;;;0.39;63.99
30724;BME280;17473;52.286;20.930;2023-04-03T03:08:08;101006.75;;;0.37;64.49
30724;BME280;17473;52.286;20.930;2023-04-03T03:10:35;101010.78;;;0.43;63.82
30724;BME280;17473;52.286;20.930;2023-04-03T03:13:03;101013.25;;;0.31;64.34
30724;BME280;17473;52.286;20.930;2023-04-03T03:15:30;101003.66;;;0.30;64.54
30724;BME280;17473;52.286;20.930;2023-04-03T03:17:57;100993.75;;;0.16;64.73
30724;BME280;17473;52.286;20.930;2023-04-03T03:20:24;101005.19;;;0.18;64.63
30724;BME280;17473;52.286;20.930;2023-04-03T03:22:51;100993.50;;;0.03;65.18
30724;BME280;17473;52.286;20.930;2023-04-03T03:25:18;101008.44;;;0.15;65.28
30724;BME280;17473;52.286;20.930;2023-04-03T03:27:45;101009.34;;;-0.05;65.83
30724;BME280;17473;52.286;20.930;2023-04-03T03:30:12;101017.91;;;0.15;65.01
30724;BME280;17473;52.286;20.930;2023-04-03T03:32:39;101009.59;;;0.09;65.20
30724;BME280;17473;52.286;20.930;2023-04-03T03:35:07;101014.63;;;-0.13;66.11
30724;BME280;17473;52.286;20.930;2023-04-03T03:37:34;101019.22;;;0.10;64.97
30724;BME280;17473;52.286;20.930;2023-04-03T03:40:01;101015.31;;;-0.06;65.64
30724;BME280;17473;52.286;20.930;2023-04-03T03:42:29;101009.97;;;-0.07;66.00
30724;BME280;17473;52.286;20.930;2023-04-03T03:44:56;101013.88;;;-0.12;65.90
30724;BME280;17473;52.286;20.930;2023-04-03T03:47:23;101005.16;;;-0.13;66.03
30724;BME280;17473;52.286;20.930;2023-04-03T03:49:50;101013.09;;;0.09;65.51
30724;BME280;17473;52.286;20.930;2023-04-03T03:52:17;101012.19;;;-0.02;65.36
30724;BME280;17473;52.286;20.930;2023-04-03T03:54:44;101007.75;;;-0.03;66.13
30724;BME280;17473;52.286;20.930;2023-04-03T03:57:11;101010.63;;;-0.10;66.36
30724;BME280;17473;52.286;20.930;2023-04-03T03:59:39;100998.53;;;-0.20;66.52
30724;BME280;17473;52.286;20.930;2023-04-03T04:02:08;101004.75;;;-0.28;67.34
30724;BME280;17473;52.286;20.930;2023-04-03T04:04:36;101014.25;;;-0.08;66.78
30724;BME280;17473;52.286;20.930;2023-04-03T04:07:03;101017.34;;;-0.12;66.79
30724;BME280;17473;52.286;20.930;2023-04-03T04:09:30;101014.25;;;-0.18;67.21
30724;BME280;17473;52.286;20.930;2023-04-03T04:11:57;101021.38;;;-0.16;67.46
30724;BME280;17473;52.286;20.930;2023-04-03T04:14:24;101029.31;;;-0.14;67.75
30724;BME280;17473;52.286;20.930;2023-04-03T04:16:52;101025.31;;;-0.10;67.77
30724;BME280;17473;52.286;20.930;2023-04-03T04:19:19;101029.19;;;-0.05;67.28
30724;BME280;17473;52.286;20.930;2023-04-03T04:21:46;101035.72;;;0.00;67.37
30724;BME280;17473;52.286;20.930;2023-04-03T04:24:13;101034.00;;;0.01;67.33
30724;BME280;17473;52.286;20.930;2023-04-03T04:26:40;101034.28;;;0.04;67.29
30724;BME280;17473;52.286;20.930;2023-04-03T04:29:09;101027.50;;;0.06;66.80
30724;BME280;17473;52.286;20.930;2023-04-03T04:31:36;101036.22;;;-0.04;66.92
30724;BME280;17473;52.286;20.930;2023-04-03T04:34:03;101038.91;;;-0.23;67.20
30724;BME280;17473;52.286;20.930;2023-04-03T04:36:31;101042.47;;;0.08;66.70
30724;BME280;17473;52.286;20.930;2023-04-03T04:38:58;101032.47;;;0.34;65.72
30724;BME280;17473;52.286;20.930;2023-04-03T04:41:25;101048.06;;;0.75;64.32
30724;BME280;17473;52.286;20.930;2023-04-03T04:43:52;101049.28;;;1.76;61.61
30724;BME280;17473;52.286;20.930;2023-04-03T04:46:19;101059.97;;;3.88;56.10
30724;BME280;17473;52.286;20.930;2023-04-03T04:48:47;101045.63;;;5.65;50.01
30724;BME280;17473;52.286;20.930;2023-04-03T04:51:15;101038.44;;;7.51;49.38
30724;BME280;17473;52.286;20.930;2023-04-03T04:53:42;101038.44;;;8.32;45.75
30724;BME280;17473;52.286;20.930;2023-04-03T04:56:10;101028.63;;;9.32;44.91
30724;BME280;17473;52.286;20.930;2023-04-03T04:58:37;101035.63;;;10.64;40.41
30724;BME280;17473;52.286;20.930;2023-04-03T05:01:09;101038.13;;;10.82;37.84
30724;BME280;17473;52.286;20.930;2023-04-03T05:03:37;101040.53;;;11.18;36.06
30724;BME280;17473;52.286;20.930;2023-04-03T05:06:04;101036.00;;;12.03;34.28
30724;BME280;17473;52.286;20.930;2023-04-03T05:08:32;101039.41;;;12.48;33.88
30724;BME280;17473;52.286;20.930;2023-04-03T05:10:59;101036.19;;;12.81;32.46
30724;BME280;17473;52.286;20.930;2023-04-03T05:13:26;101034.03;;;13.50;31.04
30724;BME280;17473;52.286;20.930;2023-04-03T05:15:53;101038.88;;;14.21;30.32
30724;BME280;17473;52.286;20.930;2023-04-03T05:18:20;101029.06;;;13.88;30.36
30724;BME280;17473;52.286;20.930;2023-04-03T05:20:49;101028.16;;;14.16;29.69
30724;BME280;17473;52.286;20.930;2023-04-03T05:23:18;101046.88;;;14.85;28.50
30724;BME280;17473;52.286;20.930;2023-04-03T05:25:45;101047.31;;;15.36;28.02
30724;BME280;17473;52.286;20.930;2023-04-03T05:28:13;101044.75;;;15.40;27.69
30724;BME280;17473;52.286;20.930;2023-04-03T05:30:41;101059.25;;;15.53;27.53
30724;BME280;17473;52.286;20.930;2023-04-03T05:33:08;101045.53;;;17.57;25.19
30724;BME280;17473;52.286;20.930;2023-04-03T05:35:37;101044.31;;;17.36;24.98
30724;BME280;17473;52.286;20.930;2023-04-03T05:38:08;101039.34;;;17.58;25.13
30724;BME280;17473;52.286;20.930;2023-04-03T05:40:35;101054.84;;;16.33;25.57
30724;BME280;17473;52.286;20.930;2023-04-03T05:43:03;101056.69;;;16.82;24.95
30724;BME280;17473;52.286;20.930;2023-04-03T05:45:30;101060.25;;;18.54;24.08
30724;BME280;17473;52.286;20.930;2023-04-03T05:47:57;101060.28;;;19.45;22.61
30724;BME280;17473;52.286;20.930;2023-04-03T05:50:24;101058.19;;;18.32;23.22
30724;BME280;17473;52.286;20.930;2023-04-03T05:52:53;101069.66;;;18.95;22.81
30724;BME280;17473;52.286;20.930;2023-04-03T05:55:22;101076.16;;;17.24;24.42
30724;BME280;17473;52.286;20.930;2023-04-03T05:57:49;101065.50;;;20.90;21.21
30724;BME280;17473;52.286;20.930;2023-04-03T06:00:17;101055.25;;;19.92;21.52
30724;BME280;17473;52.286;20.930;2023-04-03T06:02:44;101064.13;;;19.84;21.74
30724;BME280;17473;52.286;20.930;2023-04-03T06:05:11;101065.31;;;20.39;21.32
30724;BME280;17473;52.286;20.930;2023-04-03T06:07:40;101064.72;;;18.55;22.52
30724;BME280;17473;52.286;20.930;2023-04-03T06:10:08;101056.78;;;19.54;22.00
30724;BME280;17473;52.286;20.930;2023-04-03T06:12:35;101085.03;;;15.19;25.91
30724;BME280;17473;52.286;20.930;2023-04-03T06:15:03;101089.22;;;13.60;27.96
30724;BME280;17473;52.286;20.930;2023-04-03T06:17:30;101087.22;;;17.47;24.19
30724;BME280;17473;52.286;20.930;2023-04-03T06:19:57;101063.81;;;19.43;21.90
30724;BME280;17473;52.286;20.930;2023-04-03T06:22:25;101078.91;;;19.33;21.73
30724;BME280;17473;52.286;20.930;2023-04-03T06:24:52;101089.03;;;18.77;21.85
30724;BME280;17473;52.286;20.930;2023-04-03T06:27:19;101087.34;;;19.84;21.80
30724;BME280;17473;52.286;20.930;2023-04-03T06:29:47;101091.28;;;20.43;20.65
30724;BME280;17473;52.286;20.930;2023-04-03T06:32:16;101087.03;;;21.29;20.42
30724;BME280;17473;52.286;20.930;2023-04-03T06:34:43;101096.69;;;22.59;19.07
30724;BME280;17473;52.286;20.930;2023-04-03T06:37:22;101093.13;;;22.50;18.85
30724;BME280;17473;52.286;20.930;2023-04-03T06:39:49;101092.41;;;21.38;19.73
30724;BME280;17473;52.286;20.930;2023-04-03T06:42:17;101095.09;;;21.27;19.61
30724;BME280;17473;52.286;20.930;2023-04-03T06:44:44;101096.00;;;21.88;19.31
30724;BME280;17473;52.286;20.930;2023-04-03T06:47:14;101104.38;;;23.25;18.34
30724;BME280;17473;52.286;20.930;2023-04-03T06:49:42;101095.94;;;22.16;18.90
30724;BME280;17473;52.286;20.930;2023-04-03T06:52:09;101099.56;;;21.55;19.07
30724;BME280;17473;52.286;20.930;2023-04-03T06:54:40;101095.81;;;22.58;18.97
30724;BME280;17473;52.286;20.930;2023-04-03T06:57:07;101104.78;;;22.49;18.82
30724;BME280;17473;52.286;20.930;2023-04-03T06:59:35;101096.00;;;21.51;19.24
30724;BME280;17473;52.286;20.930;2023-04-03T07:02:03;101104.94;;;21.15;19.45
30724;BME280;17473;52.286;20.930;2023-04-03T07:04:30;101115.34;;;20.32;20.06
30724;BME280;17473;52.286;20.930;2023-04-03T07:06:57;101118.59;;;19.80;20.32
30724;BME280;17473;52.286;20.930;2023-04-03T07:09:24;101108.06;;;20.05;20.22
30724;BME280;17473;52.286;20.930;2023-04-03T07:11:51;101115.06;;;19.86;20.67
30724;BME280;17473;52.286;20.930;2023-04-03T07:14:19;101118.00;;;20.25;20.46
30724;BME280;17473;52.286;20.930;2023-04-03T07:16:46;101118.16;;;20.60;20.14
30724;BME280;17473;52.286;20.930;2023-04-03T07:19:13;101123.88;;;19.73;20.69
30724;BME280;17473;52.286;20.930;2023-04-03T07:21:40;101125.47;;;19.50;20.94
30724;BME280;17473;52.286;20.930;2023-04-03T07:24:08;101119.75;;;20.20;20.41
30724;BME280;17473;52.286;20.930;2023-04-03T07:26:41;101126.72;;;19.93;21.12
30724;BME280;17473;52.286;20.930;2023-04-03T07:29:08;101133.50;;;19.50;21.44
30724;BME280;17473;52.286;20.930;2023-04-03T07:31:35;101134.41;;;19.51;21.47
30724;BME280;17473;52.286;20.930;2023-04-03T07:34:03;101134.06;;;19.14;21.13
30724;BME280;17473;52.286;20.930;2023-04-03T07:36:30;101122.66;;;17.93;22.29
30724;BME280;17473;52.286;20.930;2023-04-03T07:39:00;101133.47;;;18.66;21.90
30724;BME280;17473;52.286;20.930;2023-04-03T07:41:27;101132.97;;;18.27;21.88
30724;BME280;17473;52.286;20.930;2023-04-03T07:43:55;101134.50;;;18.75;21.61
30724;BME280;17473;52.286;20.930;2023-04-03T07:46:23;101140.81;;;18.82;21.57
30724;BME280;17473;52.286;20.930;2023-04-03T07:48:51;101134.81;;;19.00;21.18
30724;BME280;17473;52.286;20.930;2023-04-03T07:51:18;101134.59;;;19.74;20.81
30724;BME280;17473;52.286;20.930;2023-04-03T07:53:45;101135.47;;;19.70;20.69
30724;BME280;17473;52.286;20.930;2023-04-03T07:56:12;101129.75;;;18.51;21.57
30724;BME280;17473;52.286;20.930;2023-04-03T07:58:39;101144.09;;;18.58;21.45
30724;BME280;17473;52.286;20.930;2023-04-03T08:01:06;101144.09;;;18.59;21.21
30724;BME280;17473;52.286;20.930;2023-04-03T08:03:34;101144.72;;;17.80;22.01
30724;BME280;17473;52.286;20.930;2023-04-03T08:06:04;101131.94;;;18.85;21.16
30724;BME280;17473;52.286;20.930;2023-04-03T08:08:37;101129.28;;;18.17;20.83
30724;BME280;17473;52.286;20.930;2023-04-03T08:11:04;101140.72;;;17.53;21.74
30724;BME280;17473;52.286;20.930;2023-04-03T08:13:33;101136.38;;;17.09;21.83
30724;BME280;17473;52.286;20.930;2023-04-03T08:16:27;101135.66;;;16.73;22.37
30724;BME280;17473;52.286;20.930;2023-04-03T08:18:55;101142.63;;;15.52;23.88
30724;BME280;17473;52.286;20.930;2023-04-03T08:21:22;101142.09;;;16.02;23.27
30724;BME280;17473;52.286;20.930;2023-04-03T08:23:51;101126.44;;;15.09;23.87
30724;BME280;17473;52.286;20.930;2023-04-03T08:26:21;101131.56;;;16.07;23.36
30724;BME280;17473;52.286;20.930;2023-04-03T08:28:49;101154.56;;;14.69;23.75
30724;BME280;17473;52.286;20.930;2023-04-03T08:31:19;101147.38;;;13.28;25.53
30724;BME280;17473;52.286;20.930;2023-04-03T08:33:47;101158.66;;;13.22;25.11
30724;BME280;17473;52.286;20.930;2023-04-03T08:36:34;101166.81;;;12.78;25.79
30724;BME280;17473;52.286;20.930;2023-04-03T08:39:02;101146.25;;;13.21;24.79
30724;BME280;17473;52.286;20.930;2023-04-03T08:41:41;101166.94;;;13.06;25.17
30724;BME280;17473;52.286;20.930;2023-04-03T08:52:08;101170.84;;;11.79;27.03
30724;BME280;17473;52.286;20.930;2023-04-03T08:54:54;101147.84;;;12.43;26.04
30724;BME280;17473;52.286;20.930;2023-04-03T08:57:39;101170.09;;;12.26;25.83
30724;BME280;17473;52.286;20.930;2023-04-03T09:00:20;101176.34;;;11.41;26.97
30724;BME280;17473;52.286;20.930;2023-04-03T09:02:56;101165.72;;;10.79;28.37
30724;BME280;17473;52.286;20.930;2023-04-03T09:05:55;101166.69;;;11.01;27.44
30724;BME280;17473;52.286;20.930;2023-04-03T09:16:54;101152.22;;;11.97;26.22
30724;BME280;17473;52.286;20.930;2023-04-03T09:22:26;101158.84;;;11.24;26.41
30724;BME280;17473;52.286;20.930;2023-04-03T09:25:13;101167.91;;;10.51;27.93
30724;BME280;17473;52.286;20.930;2023-04-03T09:27:40;101166.59;;;11.40;27.56
30724;BME280;17473;52.286;20.930;2023-04-03T09:30:23;101170.81;;;11.35;27.11
30724;BME280;17473;52.286;20.930;2023-04-03T09:32:54;101167.47;;;10.59;27.67
30724;BME280;17473;52.286;20.930;2023-04-03T09:35:32;101155.22;;;10.81;27.44
30724;BME280;17473;52.286;20.930;2023-04-03T09:40:43;101165.63;;;10.21;27.53
30724;BME280;17473;52.286;20.930;2023-04-03T09:45:46;101163.56;;;10.90;27.43
30724;BME280;17473;52.286;20.930;2023-04-03T09:53:42;101147.38;;;10.25;27.58
30724;BME280;17473;52.286;20.930;2023-04-03T10:01:39;101180.47;;;9.64;28.44
30724;BME280;17473;52.286;20.930;2023-04-03T10:04:16;101169.06;;;9.13;29.06
30724;BME280;17473;52.286;20.930;2023-04-03T10:06:53;101179.94;;;9.53;28.84
30724;BME280;17473;52.286;20.930;2023-04-03T10:09:30;101192.84;;;10.20;27.84
30724;BME280;17473;52.286;20.930;2023-04-03T10:12:06;101164.81;;;10.22;27.64
30724;BME280;17473;52.286;20.930;2023-04-03T10:15:00;101170.94;;;9.84;28.40
30724;BME280;17473;52.286;20.930;2023-04-03T10:17:42;101165.44;;;10.93;27.73
30724;BME280;17473;52.286;20.930;2023-04-03T10:20:45;101169.81;;;10.92;27.13
30724;BME280;17473;52.286;20.930;2023-04-03T10:23:26;101177.72;;;10.73;27.86
30724;BME280;17473;52.286;20.930;2023-04-03T10:26:32;101174.75;;;9.91;28.15
30724;BME280;17473;52.286;20.930;2023-04-03T10:29:21;101183.03;;;9.45;28.81
30724;BME280;17473;52.286;20.930;2023-04-03T10:38:16;101170.53;;;10.13;28.30
30724;BME280;17473;52.286;20.930;2023-04-03T10:41:10;101163.41;;;8.88;29.16
30724;BME280;17473;52.286;20.930;2023-04-03T10:46:52;101162.84;;;10.17;28.13
30724;BME280;17473;52.286;20.930;2023-04-03T10:52:43;101163.50;;;10.13;28.77
30724;BME280;17473;52.286;20.930;2023-04-03T10:57:56;101168.28;;;9.66;28.10
30724;BME280;17473;52.286;20.930;2023-04-03T11:00:40;101165.72;;;9.86;27.67
30724;BME280;17473;52.286;20.930;2023-04-03T11:03:27;101156.16;;;9.88;28.11
30724;BME280;17473;52.286;20.930;2023-04-03T11:05:56;101149.94;;;10.42;27.20
30724;BME280;17473;52.286;20.930;2023-04-03T11:11:06;101162.06;;;10.20;27.70
30724;BME280;17473;52.286;20.930;2023-04-03T11:13:48;101157.25;;;9.57;28.23
30724;BME280;17473;52.286;20.930;2023-04-03T11:16:25;101154.03;;;9.63;28.96
30724;BME280;17473;52.286;20.930;2023-04-03T11:22:23;101147.50;;;9.73;28.80
30724;BME280;17473;52.286;20.930;2023-04-03T11:39:20;101140.66;;;9.07;29.28
30724;BME280;17473;52.286;20.930;2023-04-03T11:41:49;101145.22;;;8.93;29.87
30724;BME280;17473;52.286;20.930;2023-04-03T11:44:38;101151.22;;;9.07;30.18
30724;BME280;17473;52.286;20.930;2023-04-03T11:47:09;101135.88;;;8.82;30.02
30724;BME280;17473;52.286;20.930;2023-04-03T11:50:00;101136.00;;;8.35;29.89
30724;BME280;17473;52.286;20.930;2023-04-03T12:35:34;101125.97;;;7.96;30.74
30724;BME280;17473;52.286;20.930;2023-04-03T12:38:40;101127.13;;;8.02;31.02
30724;BME280;17473;52.286;20.930;2023-04-03T12:41:50;101121.06;;;8.51;30.52
30724;BME280;17473;52.286;20.930;2023-04-03T12:44:53;101123.13;;;8.56;30.29
30724;BME280;17473;52.286;20.930;2023-04-03T12:47:36;101124.75;;;8.54;30.01
30724;BME280;17473;52.286;20.930;2023-04-03T12:50:36;101112.63;;;8.25;30.45
30724;BME280;17473;52.286;20.930;2023-04-03T12:55:41;101132.31;;;8.00;31.08
30724;BME280;17473;52.286;20.930;2023-04-03T12:58:35;101125.00;;;8.59;30.57
30724;BME280;17473;52.286;20.930;2023-04-03T13:01:14;101125.00;;;8.11;31.09
30724;BME280;17473;52.286;20.930;2023-04-03T13:03:48;101138.16;;;7.79;31.17
30724;BME280;17473;52.286;20.930;2023-04-03T13:06:43;101148.28;;;7.42;31.31
30724;BME280;17473;52.286;20.930;2023-04-03T13:09:30;101133.78;;;7.80;30.94
30724;BME280;17473;52.286;20.930;2023-04-03T13:12:15;101133.03;;;7.21;31.48
30724;BME280;17473;52.286;20.930;2023-04-03T13:14:56;101139.66;;;7.59;31.08
30724;BME280;17473;52.286;20.930;2023-04-03T13:17:25;101143.22;;;7.76;31.47
30724;BME280;17473;52.286;20.930;2023-04-03T13:19:53;101120.97;;;7.55;32.06
30724;BME280;17473;52.286;20.930;2023-04-03T13:22:36;101131.50;;;7.55;32.07
30724;BME280;17473;52.286;20.930;2023-04-03T13:25:11;101129.22;;;7.46;32.09
30724;BME280;17473;52.286;20.930;2023-04-03T13:27:40;101125.25;;;7.23;32.32
30724;BME280;17473;52.286;20.930;2023-04-03T13:30:27;101131.03;;;7.32;31.74
30724;BME280;17473;52.286;20.930;2023-04-03T13:32:57;101131.28;;;7.66;31.72
30724;BME280;17473;52.286;20.930;2023-04-03T13:35:33;101129.97;;;7.90;31.45
30724;BME280;17473;52.286;20.930;2023-04-03T13:41:25;101147.66;;;7.77;31.34
30724;BME280;17473;52.286;20.930;2023-04-03T13:43:52;101129.88;;;7.57;31.07
30724;BME280;17473;52.286;20.930;2023-04-03T13:46:32;101124.78;;;7.60;31.32
30724;BME280;17473;52.286;20.930;2023-04-03T13:49:36;101130.19;;;7.78;31.31
30724;BME280;17473;52.286;20.930;2023-04-03T13:52:33;101120.50;;;8.25;30.39
30724;BME280;17473;52.286;20.930;2023-04-03T13:55:28;101115.59;;;7.99;31.06
30724;BME280;17473;52.286;20.930;2023-04-03T14:00:39;101118.41;;;8.51;38.78
30724;BME280;17473;52.286;20.930;2023-04-03T14:03:27;101118.84;;;8.58;37.53
30724;BME280;17473;52.286;20.930;2023-04-03T14:05:55;101117.13;;;9.10;37.88
30724;BME280;17473;52.286;20.930;2023-04-03T14:08:23;101106.31;;;8.87;35.40
30724;BME280;17473;52.286;20.930;2023-04-03T14:11:24;101111.75;;;8.74;33.84
30724;BME280;17473;52.286;20.930;2023-04-03T14:13:54;101109.84;;;8.88;33.09
30724;BME280;17473;52.286;20.930;2023-04-03T14:16:28;101114.97;;;8.52;32.96
30724;BME280;17473;52.286;20.930;2023-04-03T14:18:56;101111.44;;;9.02;33.36
30724;BME280;17473;52.286;20.930;2023-04-03T14:21:24;101126.03;;;9.12;32.47
30724;BME280;17473;52.286;20.930;2023-04-03T14:23:51;101125.75;;;8.56;30.78
30724;BME280;17473;52.286;20.930;2023-04-03T14:26:22;101122.25;;;8.24;30.90
30724;BME280;17473;52.286;20.930;2023-04-03T14:28:54;101119.13;;;7.83;31.23
30724;BME280;17473;52.286;20.930;2023-04-03T14:31:23;101114.94;;;7.87;31.57
30724;BME280;17473;52.286;20.930;2023-04-03T14:33:51;101113.69;;;7.80;31.69
30724;BME280;17473;52.286;20.930;2023-04-03T14:36:21;101102.41;;;7.83;31.77
30724;BME280;17473;52.286;20.930;2023-04-03T14:38:50;101111.53;;;8.05;32.32
30724;BME280;17473;52.286;20.930;2023-04-03T14:41:21;101117.31;;;7.82;32.51
30724;BME280;17473;52.286;20.930;2023-04-03T14:44:01;101112.81;;;7.65;32.98
30724;BME280;17473;52.286;20.930;2023-04-03T14:46:44;101117.00;;;7.61;33.17
30724;BME280;17473;52.286;20.930;2023-04-03T14:49:26;101118.44;;;7.56;33.52
30724;BME280;17473;52.286;20.930;2023-04-03T14:51:56;101124.44;;;7.54;33.12
30724;BME280;17473;52.286;20.930;2023-04-03T14:54:24;101116.16;;;7.62;33.15
30724;BME280;17473;52.286;20.930;2023-04-03T14:56:58;101127.13;;;7.40;33.65
30724;BME280;17473;52.286;20.930;2023-04-03T14:59:27;101123.69;;;7.26;33.92
30724;BME280;17473;52.286;20.930;2023-04-03T15:01:55;101118.72;;;7.31;33.88
30724;BME280;17473;52.286;20.930;2023-04-03T15:04:22;101129.69;;;7.39;34.29
30724;BME280;17473;52.286;20.930;2023-04-03T15:06:51;101118.63;;;7.29;33.86
30724;BME280;17473;52.286;20.930;2023-04-03T15:09:25;101121.91;;;7.10;33.73
30724;BME280;17473;52.286;20.930;2023-04-03T15:11:54;101129.34;;;7.47;33.09